sensor_id;sensor_type;location;lat;lon;timestamp;pressure;altitude;pressure_sealevel;temperature;humidity
18500;BME280;9379;52.134;11.576;2023-06-01T00:00:51;101323.03;;;18.94;68.65
18500;BME280;9379;52.134;11.576;2023-06-01T00:03:22;101326.22;;;18.98;68.76
18500;BME280;9379;52.134;11.576;2023-06-01T00:05:50;101314.94;;;18.94;69.37
18500;BME280;9379;52.134;11.576;2023-06-01T00:08:17;101318.00;;;19.00;69.49
18500;BME280;9379;52.134;11.576;2023-06-01T00:10:45;101334.53;;;18.72;69.32
18500;BME280;9379;52.134;11.576;2023-06-01T00:13:12;101327.63;;;18.78;69.88
18500;BME280;9379;52.134;11.576;2023-06-01T00:15:39;101335.28;;;19.52;67.42
18500;BME280;9379;52.134;11.576;2023-06-01T00:18:06;101329.38;;;19.88;66.02
18500;BME280;9379;52.134;11.576;2023-06-01T00:20:33;101328.88;;;19.53;67.59
18500;BME280;9379;52.134;11.576;2023-06-01T00:23:02;101333.91;;;19.65;67.22
18500;BME280;9379;52.134;11.576;2023-06-01T00:25:29;101322.28;;;20.18;65.44
18500;BME280;9379;52.134;11.576;2023-06-01T00:27:57;101328.09;;;20.07;65.61
18500;BME280;9379;52.134;11.576;2023-06-01T00:30:24;101334.97;;;20.09;66.43
18500;BME280;9379;52.134;11.576;2023-06-01T00:32:51;101332.31;;;19.78;67.49
18500;BME280;9379;52.134;11.576;2023-06-01T00:35:18;101328.94;;;19.76;67.44
18500;BME280;9379;52.134;11.576;2023-06-01T00:37:44;101341.03;;;19.02;70.21
18500;BME280;9379;52.134;11.576;2023-06-01T00:40:11;101329.22;;;19.11;69.73
18500;BME280;9379;52.134;11.576;2023-06-01T00:42:38;101350.00;;;18.78;71.01
18500;BME280;9379;52.134;11.576;2023-06-01T00:45:07;101341.19;;;19.56;67.95
18500;BME280;9379;52.134;11.576;2023-06-01T00:47:39;101333.69;;;18.72;71.29
18500;BME280;9379;52.134;11.576;2023-06-01T00:50:07;101337.88;;;18.99;70.37
18500;BME280;9379;52.134;11.576;2023-06-01T00:52:35;101331.03;;;19.27;69.01
18500;BME280;9379;52.134;11.576;2023-06-01T00:55:04;101336.81;;;19.55;67.12
18500;BME280;9379;52.134;11.576;2023-06-01T00:57:31;101338.34;;;19.58;66.83
18500;BME280;9379;52.134;11.576;2023-06-01T00:59:58;101319.69;;;19.40;67.05
18500;BME280;9379;52.134;11.576;2023-06-01T01:02:26;101317.66;;;19.81;65.97
18500;BME280;9379;52.134;11.576;2023-06-01T01:04:57;101310.34;;;19.50;66.17
18500;BME280;9379;52.134;11.576;2023-06-01T01:07:32;101338.41;;;18.78;69.19
18500;BME280;9379;52.134;11.576;2023-06-01T01:10:07;101341.63;;;18.65;69.57
18500;BME280;9379;52.134;11.576;2023-06-01T01:12:43;101337.59;;;19.24;67.83
18500;BME280;9379;52.134;11.576;2023-06-01T01:15:17;101346.13;;;18.32;70.75
18500;BME280;9379;52.134;11.576;2023-06-01T01:17:49;101347.97;;;18.40;70.54
18500;BME280;9379;52.134;11.576;2023-06-01T01:20:22;101337.34;;;18.87;69.13
18500;BME280;9379;52.134;11.576;2023-06-01T01:23:05;101338.84;;;18.98;68.64
18500;BME280;9379;52.134;11.576;2023-06-01T01:26:20;101342.91;;;18.85;68.88
18500;BME280;9379;52.134;11.576;2023-06-01T01:28:53;101343.00;;;19.24;67.59
18500;BME280;9379;52.134;11.576;2023-06-01T01:31:24;101354.53;;;18.86;68.93
18500;BME280;9379;52.134;11.576;2023-06-01T01:33:53;101340.75;;;19.36;66.60
18500;BME280;9379;52.134;11.576;2023-06-01T01:36:21;101342.53;;;19.05;66.89
18500;BME280;9379;52.134;11.576;2023-06-01T01:38:48;101338.91;;;19.37;65.54
18500;BME280;9379;52.134;11.576;2023-06-01T01:41:15;101336.38;;;18.80;67.84
18500;BME280;9379;52.134;11.576;2023-06-01T01:43:42;101341.16;;;19.17;66.15
18500;BME280;9379;52.134;11.576;2023-06-01T01:46:21;101325.81;;;19.17;65.99
18500;BME280;9379;52.134;11.576;2023-06-01T01:48:56;101332.88;;;19.27;65.99
18500;BME280;9379;52.134;11.576;2023-06-01T01:51:31;101336.31;;;17.90;69.71
18500;BME280;9379;52.134;11.576;2023-06-01T01:54:04;101347.81;;;17.24;72.32
18500;BME280;9379;52.134;11.576;2023-06-01T01:56:32;101338.59;;;17.27;72.60
18500;BME280;9379;52.134;11.576;2023-06-01T01:59:01;101341.56;;;18.08;70.02
18500;BME280;9379;52.134;11.576;2023-06-01T02:01:30;101317.84;;;17.95;70.04
18500;BME280;9379;52.134;11.576;2023-06-01T02:03:59;101342.94;;;18.69;67.77
18500;BME280;9379;52.134;11.576;2023-06-01T02:06:26;101336.00;;;18.01;69.54
18500;BME280;9379;52.134;11.576;2023-06-01T02:08:53;101340.06;;;18.38;68.55
18500;BME280;9379;52.134;11.576;2023-06-01T02:11:20;101341.72;;;17.98;70.34
18500;BME280;9379;52.134;11.576;2023-06-01T02:13:46;101340.31;;;17.36;72.26
18500;BME280;9379;52.134;11.576;2023-06-01T02:16:13;101337.47;;;17.71;71.01
18500;BME280;9379;52.134;11.576;2023-06-01T02:18:44;101340.25;;;17.62;71.22
18500;BME280;9379;52.134;11.576;2023-06-01T02:21:12;101333.25;;;17.77;70.78
18500;BME280;9379;52.134;11.576;2023-06-01T02:23:39;101341.03;;;17.88;70.37
18500;BME280;9379;52.134;11.576;2023-06-01T02:26:07;101343.72;;;17.88;70.18
18500;BME280;9379;52.134;11.576;2023-06-01T02:28:36;101338.22;;;17.56;71.67
18500;BME280;9379;52.134;11.576;2023-06-01T02:31:03;101329.97;;;18.07;70.40
18500;BME280;9379;52.134;11.576;2023-06-01T02:33:29;101338.66;;;17.93;70.56
18500;BME280;9379;52.134;11.576;2023-06-01T02:35:58;101337.38;;;18.38;68.92
18500;BME280;9379;52.134;11.576;2023-06-01T02:38:25;101335.03;;;18.19;69.38
18500;BME280;9379;52.134;11.576;2023-06-01T02:40:52;101333.25;;;17.77;71.26
18500;BME280;9379;52.134;11.576;2023-06-01T02:43:19;101338.00;;;17.91;70.62
18500;BME280;9379;52.134;11.576;2023-06-01T02:45:46;101326.78;;;18.28;69.51
18500;BME280;9379;52.134;11.576;2023-06-01T02:48:12;101339.22;;;18.13;70.05
18500;BME280;9379;52.134;11.576;2023-06-01T02:50:39;101339.22;;;18.13;69.98
18500;BME280;9379;52.134;11.576;2023-06-01T02:53:07;101338.94;;;16.98;73.94
18500;BME280;9379;52.134;11.576;2023-06-01T02:55:34;101341.13;;;16.94;74.40
18500;BME280;9379;52.134;11.576;2023-06-01T02:58:01;101328.78;;;16.40;76.21
18500;BME280;9379;52.134;11.576;2023-06-01T03:00:28;101328.78;;;16.66;75.43
18500;BME280;9379;52.134;11.576;2023-06-01T03:02:55;101332.28;;;17.10;74.03
18500;BME280;9379;52.134;11.576;2023-06-01T03:05:22;101331.84;;;17.23;73.30
18500;BME280;9379;52.134;11.576;2023-06-01T03:07:49;101335.66;;;17.12;73.33
18500;BME280;9379;52.134;11.576;2023-06-01T03:10:17;101335.66;;;17.46;72.67
18500;BME280;9379;52.134;11.576;2023-06-01T03:12:44;101324.78;;;17.21;73.10
18500;BME280;9379;52.134;11.576;2023-06-01T03:15:11;101333.56;;;16.54;75.25
18500;BME280;9379;52.134;11.576;2023-06-01T03:17:38;101331.25;;;16.77;75.01
18500;BME280;9379;52.134;11.576;2023-06-01T03:20:05;101337.78;;;16.13;76.94
18500;BME280;9379;52.134;11.576;2023-06-01T03:22:40;101354.13;;;16.81;75.80
18500;BME280;9379;52.134;11.576;2023-06-01T03:25:08;101347.03;;;16.18;77.80
18500;BME280;9379;52.134;11.576;2023-06-01T03:27:38;101343.78;;;15.52;79.66
18500;BME280;9379;52.134;11.576;2023-06-01T03:30:05;101341.47;;;16.55;76.91
18500;BME280;9379;52.134;11.576;2023-06-01T03:32:35;101347.69;;;16.74;76.06
18500;BME280;9379;52.134;11.576;2023-06-01T03:35:04;101350.50;;;15.65;80.21
18500;BME280;9379;52.134;11.576;2023-06-01T03:37:33;101352.41;;;15.73;79.52
18500;BME280;9379;52.134;11.576;2023-06-01T03:39:59;101342.97;;;16.14;77.99
18500;BME280;9379;52.134;11.576;2023-06-01T03:42:26;101348.94;;;16.26;77.42
18500;BME280;9379;52.134;11.576;2023-06-01T03:44:54;101353.78;;;16.22;77.30
18500;BME280;9379;52.134;11.576;2023-06-01T03:47:21;101357.56;;;16.55;76.45
18500;BME280;9379;52.134;11.576;2023-06-01T03:49:48;101357.75;;;16.72;75.16
18500;BME280;9379;52.134;11.576;2023-06-01T03:52:15;101353.09;;;16.02;77.98
18500;BME280;9379;52.134;11.576;2023-06-01T03:54:43;101349.13;;;15.24;80.48
18500;BME280;9379;52.134;11.576;2023-06-01T03:57:10;101351.06;;;16.40;76.86
18500;BME280;9379;52.134;11.576;2023-06-01T03:59:37;101349.66;;;16.10;77.66
18500;BME280;9379;52.134;11.576;2023-06-01T04:02:05;101326.81;;;15.33;80.34
18500;BME280;9379;52.134;11.576;2023-06-01T04:04:35;101332.72;;;15.37;80.30
18500;BME280;9379;52.134;11.576;2023-06-01T04:07:02;101336.13;;;16.38;76.73
18500;BME280;9379;52.134;11.576;2023-06-01T04:09:29;101336.50;;;16.43;76.45
18500;BME280;9379;52.134;11.576;2023-06-01T04:11:56;101321.22;;;16.79;74.45
18500;BME280;9379;52.134;11.576;2023-06-01T04:14:23;101328.41;;;17.04;73.71
18500;BME280;9379;52.134;11.576;2023-06-01T04:16:50;101321.16;;;16.71;75.17
18500;BME280;9379;52.134;11.576;2023-06-01T04:19:18;101337.63;;;16.76;74.84
18500;BME280;9379;52.134;11.576;2023-06-01T04:21:45;101327.31;;;17.23;73.92
18500;BME280;9379;52.134;11.576;2023-06-01T04:24:14;101335.25;;;16.99;74.19
18500;BME280;9379;52.134;11.576;2023-06-01T04:26:41;101340.47;;;16.74;75.40
18500;BME280;9379;52.134;11.576;2023-06-01T04:29:09;101333.72;;;16.96;74.75
18500;BME280;9379;52.134;11.576;2023-06-01T04:31:37;101329.88;;;16.99;74.55
18500;BME280;9379;52.134;11.576;2023-06-01T04:34:04;101335.75;;;17.28;73.96
18500;BME280;9379;52.134;11.576;2023-06-01T04:36:34;101348.31;;;16.68;76.31
18500;BME280;9379;52.134;11.576;2023-06-01T04:39:04;101343.56;;;16.44;76.99
18500;BME280;9379;52.134;11.576;2023-06-01T04:41:32;101346.19;;;16.00;77.96
18500;BME280;9379;52.134;11.576;2023-06-01T04:44:00;101341.66;;;15.55;79.08
18500;BME280;9379;52.134;11.576;2023-06-01T04:46:31;101346.84;;;15.57;79.19
18500;BME280;9379;52.134;11.576;2023-06-01T04:48:58;101356.94;;;15.72;78.53
18500;BME280;9379;52.134;11.576;2023-06-01T04:51:26;101352.31;;;16.46;76.34
18500;BME280;9379;52.134;11.576;2023-06-01T04:53:56;101342.91;;;16.85;75.33
18500;BME280;9379;52.134;11.576;2023-06-01T04:56:23;101337.91;;;16.47;76.23
18500;BME280;9379;52.134;11.576;2023-06-01T04:58:52;101328.66;;;16.23;76.74
18500;BME280;9379;52.134;11.576;2023-06-01T05:01:20;101324.38;;;16.13;77.00
18500;BME280;9379;52.134;11.576;2023-06-01T05:03:51;101337.28;;;16.17;77.25
18500;BME280;9379;52.134;11.576;2023-06-01T05:06:19;101334.66;;;15.44;79.30
18500;BME280;9379;52.134;11.576;2023-06-01T05:08:47;101334.94;;;15.04;80.73
18500;BME280;9379;52.134;11.576;2023-06-01T05:11:15;101344.91;;;15.49;80.20
18500;BME280;9379;52.134;11.576;2023-06-01T05:13:42;101333.06;;;15.97;78.22
18500;BME280;9379;52.134;11.576;2023-06-01T05:16:09;101338.66;;;15.86;78.72
18500;BME280;9379;52.134;11.576;2023-06-01T05:18:37;101340.44;;;15.77;79.16
18500;BME280;9379;52.134;11.576;2023-06-01T05:21:04;101339.28;;;15.52;80.27
18500;BME280;9379;52.134;11.576;2023-06-01T05:23:31;101339.16;;;15.44;80.13
18500;BME280;9379;52.134;11.576;2023-06-01T05:25:58;101333.66;;;15.45;80.50
18500;BME280;9379;52.134;11.576;2023-06-01T05:28:29;101329.56;;;15.79;78.86
18500;BME280;9379;52.134;11.576;2023-06-01T05:30:56;101330.47;;;16.05;77.97
18500;BME280;9379;52.134;11.576;2023-06-01T05:33:23;101304.59;;;16.57;76.01
18500;BME280;9379;52.134;11.576;2023-06-01T05:35:51;101335.50;;;16.61;76.09
18500;BME280;9379;52.134;11.576;2023-06-01T05:38:18;101318.41;;;17.14;74.27
18500;BME280;9379;52.134;11.576;2023-06-01T05:40:45;101302.53;;;16.69;75.04
18500;BME280;9379;52.134;11.576;2023-06-01T05:43:12;101320.03;;;15.84;78.63
18500;BME280;9379;52.134;11.576;2023-06-01T05:45:40;101325.31;;;16.47;76.73
18500;BME280;9379;52.134;11.576;2023-06-01T05:48:07;101333.22;;;16.49;76.81
18500;BME280;9379;52.134;11.576;2023-06-01T05:50:34;101330.47;;;15.87;78.49
18500;BME280;9379;52.134;11.576;2023-06-01T05:53:00;101334.53;;;16.09;78.32
18500;BME280;9379;52.134;11.576;2023-06-01T05:55:27;101330.22;;;15.81;79.64
18500;BME280;9379;52.134;11.576;2023-06-01T05:57:54;101325.72;;;16.17;78.41
18500;BME280;9379;52.134;11.576;2023-06-01T06:00:21;101319.72;;;16.58;76.58
18500;BME280;9379;52.134;11.576;2023-06-01T06:02:50;101308.50;;;16.01;78.75
18500;BME280;9379;52.134;11.576;2023-06-01T06:05:17;101327.53;;;16.52;77.68
18500;BME280;9379;52.134;11.576;2023-06-01T06:07:44;101312.75;;;16.48;77.39
18500;BME280;9379;52.134;11.576;2023-06-01T06:10:11;101328.16;;;16.46;78.17
18500;BME280;9379;52.134;11.576;2023-06-01T06:12:38;101325.19;;;16.13;79.66
18500;BME280;9379;52.134;11.576;2023-06-01T06:15:06;101325.88;;;16.33;78.88
18500;BME280;9379;52.134;11.576;2023-06-01T06:17:33;101322.38;;;16.15;79.00
18500;BME280;9379;52.134;11.576;2023-06-01T06:20:01;101301.63;;;16.43;78.01
18500;BME280;9379;52.134;11.576;2023-06-01T06:22:31;101321.16;;;16.71;78.05
18500;BME280;9379;52.134;11.576;2023-06-01T06:24:58;101334.03;;;16.67;78.26
18500;BME280;9379;52.134;11.576;2023-06-01T06:27:25;101314.91;;;16.44;78.77
18500;BME280;9379;52.134;11.576;2023-06-01T06:29:52;101328.63;;;16.41;79.11
18500;BME280;9379;52.134;11.576;2023-06-01T06:32:19;101325.84;;;16.51;79.14
18500;BME280;9379;52.134;11.576;2023-06-01T06:34:46;101323.69;;;16.72;78.47
18500;BME280;9379;52.134;11.576;2023-06-01T06:37:14;101328.06;;;16.73;78.48
18500;BME280;9379;52.134;11.576;2023-06-01T06:39:41;101325.56;;;16.18;80.72
18500;BME280;9379;52.134;11.576;2023-06-01T06:42:08;101318.06;;;16.66;79.29
18500;BME280;9379;52.134;11.576;2023-06-01T06:44:35;101330.97;;;16.62;79.22
18500;BME280;9379;52.134;11.576;2023-06-01T06:47:02;101322.09;;;16.87;78.52
18500;BME280;9379;52.134;11.576;2023-06-01T06:49:28;101309.00;;;16.41;79.46
18500;BME280;9379;52.134;11.576;2023-06-01T06:51:55;101319.03;;;16.56;79.31
18500;BME280;9379;52.134;11.576;2023-06-01T06:54:23;101321.66;;;17.00;78.54
18500;BME280;9379;52.134;11.576;2023-06-01T06:56:50;101297.59;;;16.64;78.56
18500;BME280;9379;52.134;11.576;2023-06-01T06:59:17;101326.25;;;16.38;80.64
18500;BME280;9379;52.134;11.576;2023-06-01T07:01:44;101318.38;;;16.37;80.74
18500;BME280;9379;52.134;11.576;2023-06-01T07:04:11;101325.81;;;16.25;81.11
18500;BME280;9379;52.134;11.576;2023-06-01T07:06:37;101327.44;;;16.79;79.83
18500;BME280;9379;52.134;11.576;2023-06-01T07:09:04;101312.53;;;16.85;79.09
18500;BME280;9379;52.134;11.576;2023-06-01T07:11:34;101323.91;;;16.61;80.29
18500;BME280;9379;52.134;11.576;2023-06-01T07:14:01;101325.06;;;16.58;79.81
18500;BME280;9379;52.134;11.576;2023-06-01T07:16:28;101329.44;;;16.42;79.99
18500;BME280;9379;52.134;11.576;2023-06-01T07:18:55;101322.88;;;16.18;80.71
18500;BME280;9379;52.134;11.576;2023-06-01T07:21:22;101331.53;;;16.91;78.76
18500;BME280;9379;52.134;11.576;2023-06-01T07:23:48;101325.69;;;16.96;78.02
18500;BME280;9379;52.134;11.576;2023-06-01T07:26:15;101322.19;;;16.78;78.76
18500;BME280;9379;52.134;11.576;2023-06-01T07:28:44;101323.31;;;16.93;78.75
18500;BME280;9379;52.134;11.576;2023-06-01T07:31:11;101312.56;;;16.23;80.35
18500;BME280;9379;52.134;11.576;2023-06-01T07:33:38;101305.59;;;16.56;79.38
18500;BME280;9379;52.134;11.576;2023-06-01T07:36:06;101319.34;;;17.05;77.45
18500;BME280;9379;52.134;11.576;2023-06-01T07:38:33;101331.31;;;16.85;77.86
18500;BME280;9379;52.134;11.576;2023-06-01T07:40:59;101320.22;;;16.80;79.24
18500;BME280;9379;52.134;11.576;2023-06-01T07:43:26;101331.44;;;17.09;77.88
18500;BME280;9379;52.134;11.576;2023-06-01T07:45:55;101328.97;;;16.90;78.15
18500;BME280;9379;52.134;11.576;2023-06-01T07:48:22;101326.22;;;16.74;78.73
18500;BME280;9379;52.134;11.576;2023-06-01T07:50:49;101315.44;;;16.48;80.31
18500;BME280;9379;52.134;11.576;2023-06-01T07:53:17;101320.34;;;16.78;79.26
18500;BME280;9379;52.134;11.576;2023-06-01T07:55:44;101316.50;;;17.07;77.67
18500;BME280;9379;52.134;11.576;2023-06-01T07:58:14;101314.69;;;16.81;78.14
18500;BME280;9379;52.134;11.576;2023-06-01T08:00:40;101309.00;;;16.84;77.66
18500;BME280;9379;52.134;11.576;2023-06-01T08:03:09;101313.63;;;17.42;76.03
18500;BME280;9379;52.134;11.576;2023-06-01T08:05:36;101314.81;;;17.40;75.65
18500;BME280;9379;52.134;11.576;2023-06-01T08:08:03;101311.28;;;17.47;76.05
18500;BME280;9379;52.134;11.576;2023-06-01T08:10:30;101316.38;;;17.16;76.75
18500;BME280;9379;52.134;11.576;2023-06-01T08:12:56;101314.97;;;17.38;76.00
18500;BME280;9379;52.134;11.576;2023-06-01T08:15:24;101317.84;;;17.37;75.79
18500;BME280;9379;52.134;11.576;2023-06-01T08:17:51;101315.63;;;17.74;74.13
18500;BME280;9379;52.134;11.576;2023-06-01T08:20:20;101322.00;;;17.73;73.78
18500;BME280;9379;52.134;11.576;2023-06-01T08:22:48;101321.47;;;17.28;76.27
18500;BME280;9379;52.134;11.576;2023-06-01T08:25:19;101320.34;;;17.89;74.60
18500;BME280;9379;52.134;11.576;2023-06-01T08:27:48;101313.03;;;17.65;74.45
18500;BME280;9379;52.134;11.576;2023-06-01T08:30:15;101314.34;;;18.19;73.58
18500;BME280;9379;52.134;11.576;2023-06-01T08:32:42;101304.38;;;18.60;72.64
18500;BME280;9379;52.134;11.576;2023-06-01T08:35:09;101308.28;;;18.42;73.37
18500;BME280;9379;52.134;11.576;2023-06-01T08:37:37;101298.00;;;18.45;72.74
18500;BME280;9379;52.134;11.576;2023-06-01T08:40:05;101294.94;;;18.89;72.04
18500;BME280;9379;52.134;11.576;2023-06-01T08:42:44;101306.44;;;18.67;71.75
18500;BME280;9379;52.134;11.576;2023-06-01T08:45:13;101304.25;;;18.54;71.99
18500;BME280;9379;52.134;11.576;2023-06-01T08:47:40;101304.50;;;19.00;71.65
18500;BME280;9379;52.134;11.576;2023-06-01T08:50:09;101287.66;;;18.98;72.02
18500;BME280;9379;52.134;11.576;2023-06-01T08:52:38;101291.53;;;19.03;72.39
18500;BME280;9379;52.134;11.576;2023-06-01T08:55:07;101273.03;;;18.92;71.22
18500;BME280;9379;52.134;11.576;2023-06-01T08:57:35;101275.00;;;19.06;71.88
18500;BME280;9379;52.134;11.576;2023-06-01T09:00:02;101269.03;;;18.80;71.61
18500;BME280;9379;52.134;11.576;2023-06-01T09:02:29;101270.84;;;18.95;71.36
18500;BME280;9379;52.134;11.576;2023-06-01T09:04:56;101263.66;;;18.63;71.84
18500;BME280;9379;52.134;11.576;2023-06-01T09:07:24;101265.28;;;19.36;70.83
18500;BME280;9379;52.134;11.576;2023-06-01T09:09:53;101268.19;;;19.27;70.50
18500;BME280;9379;52.134;11.576;2023-06-01T09:12:21;101262.84;;;19.58;69.52
18500;BME280;9379;52.134;11.576;2023-06-01T09:15:04;101271.75;;;18.55;71.11
18500;BME280;9379;52.134;11.576;2023-06-01T09:17:33;101263.78;;;19.34;69.04
18500;BME280;9379;52.134;11.576;2023-06-01T09:20:00;101256.28;;;19.44;68.21
18500;BME280;9379;52.134;11.576;2023-06-01T09:22:41;101265.00;;;19.85;67.66
18500;BME280;9379;52.134;11.576;2023-06-01T09:25:11;101260.44;;;20.08;67.47
18500;BME280;9379;52.134;11.576;2023-06-01T09:27:44;101265.47;;;20.11;66.77
18500;BME280;9379;52.134;11.576;2023-06-01T09:30:12;101263.50;;;20.05;67.80
18500;BME280;9379;52.134;11.576;2023-06-01T09:32:39;101261.66;;;20.06;67.34
18500;BME280;9379;52.134;11.576;2023-06-01T09:35:07;101258.34;;;21.01;66.02
18500;BME280;9379;52.134;11.576;2023-06-01T09:37:37;101257.72;;;20.98;66.49
18500;BME280;9379;52.134;11.576;2023-06-01T09:40:17;101252.38;;;21.05;66.61
18500;BME280;9379;52.134;11.576;2023-06-01T09:42:44;101252.00;;;20.93;65.80
18500;BME280;9379;52.134;11.576;2023-06-01T09:45:16;101243.53;;;20.15;66.13
18500;BME280;9379;52.134;11.576;2023-06-01T09:47:43;101240.47;;;20.85;65.99
18500;BME280;9379;52.134;11.576;2023-06-01T09:50:10;101238.56;;;21.30;65.31
18500;BME280;9379;52.134;11.576;2023-06-01T09:52:37;101232.69;;;21.62;63.69
18500;BME280;9379;52.134;11.576;2023-06-01T09:55:08;101228.41;;;21.17;64.02
18500;BME280;9379;52.134;11.576;2023-06-01T09:57:36;101230.47;;;21.66;63.87
18500;BME280;9379;52.134;11.576;2023-06-01T10:00:04;101217.47;;;21.25;64.07
18500;BME280;9379;52.134;11.576;2023-06-01T10:02:32;101219.13;;;21.77;64.49
18500;BME280;9379;52.134;11.576;2023-06-01T10:05:00;101217.31;;;21.84;63.06
18500;BME280;9379;52.134;11.576;2023-06-01T10:07:28;101215.69;;;21.90;63.81
18500;BME280;9379;52.134;11.576;2023-06-01T10:09:57;101212.84;;;21.98;63.36
18500;BME280;9379;52.134;11.576;2023-06-01T10:12:24;101210.28;;;21.47;63.38
18500;BME280;9379;52.134;11.576;2023-06-01T10:14:55;101201.47;;;22.30;62.79
18500;BME280;9379;52.134;11.576;2023-06-01T10:17:22;101206.66;;;21.82;63.96
18500;BME280;9379;52.134;11.576;2023-06-01T10:19:49;101202.00;;;22.47;62.08
18500;BME280;9379;52.134;11.576;2023-06-01T10:22:17;101211.25;;;21.82;61.29
18500;BME280;9379;52.134;11.576;2023-06-01T10:24:44;101194.13;;;22.52;60.62
18500;BME280;9379;52.134;11.576;2023-06-01T10:27:16;101179.97;;;22.57;59.74
18500;BME280;9379;52.134;11.576;2023-06-01T10:29:46;101186.34;;;22.42;60.79
18500;BME280;9379;52.134;11.576;2023-06-01T10:32:42;101192.09;;;23.02;59.85
18500;BME280;9379;52.134;11.576;2023-06-01T10:35:51;101191.41;;;22.87;60.28
18500;BME280;9379;52.134;11.576;2023-06-01T22:39:07;101128.00;;;17.11;67.85
18500;BME280;9379;52.134;11.576;2023-06-01T22:41:34;101153.88;;;17.20;68.23
18500;BME280;9379;52.134;11.576;2023-06-01T22:44:01;101153.25;;;16.76;69.56
18500;BME280;9379;52.134;11.576;2023-06-01T22:46:28;101155.91;;;17.18;68.34
18500;BME280;9379;52.134;11.576;2023-06-01T22:48:55;101143.94;;;17.13;68.47
18500;BME280;9379;52.134;11.576;2023-06-01T22:51:22;101145.69;;;17.55;66.93
18500;BME280;9379;52.134;11.576;2023-06-01T22:53:49;101132.63;;;16.85;69.45
18500;BME280;9379;52.134;11.576;2023-06-01T22:56:18;101153.50;;;16.99;68.92
18500;BME280;9379;52.134;11.576;2023-06-01T22:58:44;101141.56;;;17.02;68.19
18500;BME280;9379;52.134;11.576;2023-06-01T23:01:11;101155.25;;;17.33;68.05
18500;BME280;9379;52.134;11.576;2023-06-01T23:03:38;101157.25;;;17.31;67.54
18500;BME280;9379;52.134;11.576;2023-06-01T23:06:05;101157.00;;;16.91;68.85
18500;BME280;9379;52.134;11.576;2023-06-01T23:08:32;101160.06;;;17.05;68.53
18500;BME280;9379;52.134;11.576;2023-06-01T23:11:02;101163.38;;;16.90;68.63
18500;BME280;9379;52.134;11.576;2023-06-01T23:13:34;101161.44;;;17.17;67.55
18500;BME280;9379;52.134;11.576;2023-06-01T23:16:01;101145.84;;;17.29;66.93
18500;BME280;9379;52.134;11.576;2023-06-01T23:18:28;101159.75;;;17.24;67.17
18500;BME280;9379;52.134;11.576;2023-06-01T23:20:55;101162.06;;;17.11;67.68
18500;BME280;9379;52.134;11.576;2023-06-01T23:23:22;101165.47;;;16.71;69.34
18500;BME280;9379;52.134;11.576;2023-06-01T23:25:50;101163.44;;;17.15;68.25
18500;BME280;9379;52.134;11.576;2023-06-01T23:28:17;101154.34;;;16.31;69.92
18500;BME280;9379;52.134;11.576;2023-06-01T23:30:45;101161.50;;;16.83;68.64
18500;BME280;9379;52.134;11.576;2023-06-01T23:33:12;101164.66;;;16.44;69.61
18500;BME280;9379;52.134;11.576;2023-06-01T23:35:39;101164.06;;;16.67;68.53
18500;BME280;9379;52.134;11.576;2023-06-01T23:38:06;101167.91;;;16.98;67.72
18500;BME280;9379;52.134;11.576;2023-06-01T23:40:36;101165.69;;;16.51;68.97
18500;BME280;9379;52.134;11.576;2023-06-01T23:43:03;101166.47;;;16.44;69.16
18500;BME280;9379;52.134;11.576;2023-06-01T23:45:30;101170.53;;;16.74;68.10
18500;BME280;9379;52.134;11.576;2023-06-01T23:47:59;101156.63;;;16.52;68.96
18500;BME280;9379;52.134;11.576;2023-06-01T23:50:31;101171.88;;;16.78;67.66
18500;BME280;9379;52.134;11.576;2023-06-01T23:52:58;101175.81;;;16.66;68.42
18500;BME280;9379;52.134;11.576;2023-06-01T23:55:25;101177.16;;;16.61;68.81
18500;BME280;9379;52.134;11.576;2023-06-01T23:57:52;101184.31;;;16.27;69.47
